Time;durP1;ratioP1;P1;durP2;ratioP2;P2;SDS_P1;SDS_P2;PMS_P1;PMS_P2;Temp;Humidity;BMP_temperature;BMP_pressure;BME280_temperature;BME280_humidity;BME280_pressure;Samples;Min_cycle;Max_cycle;Signal;HPM_P1;HPM_P2
2022/10/10 00:02:17;;;;;;;;;;;;;;;;;;5052821;28;1239;-75
2022/10/10 00:04:43;;;;;;;;;;;;;;;;;;5053060;28;1336;-75
2022/10/10 00:07:09;;;;;;;;;;;;;;;;;;5052267;28;1497;-75
2022/10/10 00:09:35;;;;;;;;;;;;;;;;;;5053240;28;1534;-75
2022/10/10 00:12:02;;;;;;;;;;;;;;;;;;5052736;28;1955;-75
2022/10/10 00:14:28;;;;;;;;;;;;;;;;;;5052146;28;1316;-75
2022/10/10 00:16:55;;;;;;;;;;;;;;;;;;5053245;28;850;-75
2022/10/10 00:19:21;;;;;;;;;;;;;;;;;;5053302;28;960;-76
2022/10/10 00:21:48;;;;;;;;;;;;;;;;;;5051461;28;1120;-75
2022/10/10 00:24:14;;;;;;;;;;;;;;;;;;5053150;28;1286;-75
2022/10/10 00:26:40;;;;;;;;;;;;;;;;;;5053072;28;1068;-75
2022/10/10 00:29:06;;;;;;;;;;;;;;;;;;5053000;28;889;-75
2022/10/10 00:31:32;;;;;;;;;;;;;;;;;;5051565;28;1987;-76
2022/10/10 00:34:00;;;;;;;;;;;;;;;;;;5052713;28;1609;-75
2022/10/10 00:36:26;;;;;;;;;;;;;;;;;;5051643;28;1446;-75
2022/10/10 00:38:52;;;;;;;;;;;;;;;;;;5053115;28;1131;-75
2022/10/10 00:41:18;;;;;;;;;;;;;;;;;;5052608;28;952;-75
2022/10/10 00:43:59;;;;;;;;;;;;;;;;;;5051614;28;1399;-75
2022/10/10 00:46:26;;;;;;;;;;;;;;;;;;5052829;28;1209;-75
2022/10/10 00:48:52;;;;;;;;;;;;;;;;;;5052524;28;1078;-75
2022/10/10 00:51:19;;;;;;;;;;;;;;;;;;5052220;28;1910;-75
2022/10/10 00:53:46;;;;;;;;;;;;;;;;;;5051123;28;1295;-75
2022/10/10 00:56:12;;;;;;;;;;;;;;;;;;5052721;28;930;-75
2022/10/10 00:58:39;;;;;;;;;;;;;;;;;;5052492;28;1103;-75
2022/10/10 01:01:05;;;;;;;;;;;;;;;;;;5052156;28;789;-75
2022/10/10 01:03:32;;;;;;;;;;;;;;;;;;5051484;28;1519;-75
2022/10/10 01:05:58;;;;;;;;;;;;;;;;;;5052117;28;1284;-75
2022/10/10 01:08:25;;;;;;;;;;;;;;;;;;5052381;28;949;-75
2022/10/10 01:10:56;;;;;;;;;;;;;;;;;;5052180;28;1055;-75
2022/10/10 01:13:26;;;;;;;;;;;;;;;;;;5051787;28;1983;-75
2022/10/10 01:15:53;;;;;;;;;;;;;;;;;;5052144;28;1138;-76
2022/10/10 01:18:21;;;;;;;;;;;;;;;;;;5050928;28;1181;-75
2022/10/10 01:20:50;;;;;;;;;;;;;;;;;;5051896;28;902;-75
2022/10/10 01:23:32;;;;;;;;;;;;;;;;;;5051737;28;1126;-76
2022/10/10 01:26:02;;;;;;;;;;;;;;;;;;5048605;28;1085;-75
2022/10/10 01:28:35;;;;;;;;;;;;;;;;;;5050826;28;1124;-75
2022/10/10 01:31:01;;;;;;;;;;;;;;;;;;5052026;28;794;-75
2022/10/10 01:33:28;;;;;;;;;;;;;;;;;;5051275;28;1922;-75
2022/10/10 01:35:54;;;;;;;;;;;;;;;;;;5051982;28;1532;-75
2022/10/10 01:38:22;;;;;;;;;;;;;;;;;;5051787;28;1043;-75
2022/10/10 01:40:49;;;;;;;;;;;;;;;;;;5051839;28;786;-75
2022/10/10 01:43:15;;;;;;;;;;;;;;;;;;5051409;28;1124;-75
2022/10/10 01:45:46;;;;;;;;;;;;;;;;;;5051691;28;1301;-75
2022/10/10 01:48:12;;;;;;;;;;;;;;;;;;5051594;28;1135;-75
2022/10/10 01:50:42;;;;;;;;;;;;;;;;;;5051546;28;1013;-75
2022/10/10 01:53:09;;;;;;;;;;;;;;;;;;5051206;28;1910;-75
2022/10/10 01:55:39;;;;;;;;;;;;;;;;;;5051186;28;1303;-75
2022/10/10 01:58:10;;;;;;;;;;;;;;;;;;5051396;28;973;-74
2022/10/10 02:00:38;;;;;;;;;;;;;;;;;;5051395;28;980;-75
2022/10/10 02:03:07;;;;;;;;;;;;;;;;;;5049811;28;1448;-72
2022/10/10 02:05:35;;;;;;;;;;;;;;;;;;5051028;28;2097;-76
2022/10/10 02:08:03;;;;;;;;;;;;;;;;;;5051255;28;1146;-75
2022/10/10 02:10:31;;;;;;;;;;;;;;;;;;5051494;28;1076;-75
2022/10/10 02:12:57;;;;;;;;;;;;;;;;;;5050717;28;1918;-75
2022/10/10 02:15:24;;;;;;;;;;;;;;;;;;5051324;28;1430;-75
2022/10/10 02:17:50;;;;;;;;;;;;;;;;;;5049790;28;1138;-75
2022/10/10 02:20:18;;;;;;;;;;;;;;;;;;5051203;28;1103;-75
2022/10/10 02:22:44;;;;;;;;;;;;;;;;;;5050903;28;976;-75
2022/10/10 02:25:11;;;;;;;;;;;;;;;;;;5051033;28;1388;-75
2022/10/10 02:27:37;;;;;;;;;;;;;;;;;;5049860;28;1234;-75
2022/10/10 02:30:04;;;;;;;;;;;;;;;;;;5051038;28;1295;-75
2022/10/10 02:32:32;;;;;;;;;;;;;;;;;;5050524;28;1918;-75
2022/10/10 02:34:59;;;;;;;;;;;;;;;;;;5051115;28;1295;-75
2022/10/10 02:37:26;;;;;;;;;;;;;;;;;;5051084;28;1070;-75
2022/10/10 02:39:53;;;;;;;;;;;;;;;;;;5049643;28;929;-75
2022/10/10 02:42:20;;;;;;;;;;;;;;;;;;5050428;28;1072;-75
2022/10/10 02:44:46;;;;;;;;;;;;;;;;;;5049448;28;1415;-75
2022/10/10 02:47:12;;;;;;;;;;;;;;;;;;5051176;28;925;-75
2022/10/10 02:49:38;;;;;;;;;;;;;;;;;;5050632;28;1072;-76
2022/10/10 02:52:04;;;;;;;;;;;;;;;;;;5050532;28;1973;-75
2022/10/10 02:54:32;;;;;;;;;;;;;;;;;;5049227;28;1348;-76
2022/10/10 02:56:58;;;;;;;;;;;;;;;;;;5050860;28;1011;-76
2022/10/10 02:59:25;;;;;;;;;;;;;;;;;;5065897;22;3754;-72
2022/10/10 03:01:51;;;;;;;;;;;;;;;;;;5067875;28;1196;-72
2022/10/10 03:04:17;;;;;;;;;;;;;;;;;;5085474;28;1460;-72
2022/10/10 03:06:43;;;;;;;;;;;;;;;;;;5072353;28;936;-72
2022/10/10 03:09:09;;;;;;;;;;;;;;;;;;5081105;28;1368;-72
2022/10/10 03:11:37;;;;;;;;;;;;;;;;;;5094094;28;1071;-71
2022/10/10 03:14:03;;;;;;;;;;;;;;;;;;5092876;28;1979;-71
2022/10/10 03:16:29;;;;;;;;;;;;;;;;;;5094549;28;1063;-73
2022/10/10 03:18:55;;;;;;;;;;;;;;;;;;5092604;28;1324;-72
2022/10/10 03:21:22;;;;;;;;;;;;;;;;;;5092623;28;1102;-72
2022/10/10 03:23:48;;;;;;;;;;;;;;;;;;5094191;28;1015;-72
2022/10/10 03:26:14;;;;;;;;;;;;;;;;;;5094247;28;1079;-72
2022/10/10 03:28:41;;;;;;;;;;;;;;;;;;5094048;28;1402;-70
2022/10/10 03:31:08;;;;;;;;;;;;;;;;;;5086444;28;1447;-72
2022/10/10 03:33:34;;;;;;;;;;;;;;;;;;5073345;28;1979;-72
2022/10/10 03:36:00;;;;;;;;;;;;;;;;;;5073622;28;1020;-72
2022/10/10 03:38:26;;;;;;;;;;;;;;;;;;5072072;28;1346;-72
2022/10/10 03:40:52;;;;;;;;;;;;;;;;;;5073394;28;1067;-72
2022/10/10 03:43:19;;;;;;;;;;;;;;;;;;5073300;28;1066;-72
2022/10/10 03:45:46;;;;;;;;;;;;;;;;;;5072360;28;1403;-72
2022/10/10 03:48:13;;;;;;;;;;;;;;;;;;5073633;28;997;-72
2022/10/10 03:50:39;;;;;;;;;;;;;;;;;;5073334;28;1331;-71
2022/10/10 03:53:05;;;;;;;;;;;;;;;;;;5073144;28;1918;-71
2022/10/10 03:55:31;;;;;;;;;;;;;;;;;;5073324;28;645;-72
2022/10/10 03:57:58;;;;;;;;;;;;;;;;;;5073217;28;932;-72
2022/10/10 04:00:24;;;;;;;;;;;;;;;;;;5071697;28;1424;-71
2022/10/10 04:02:52;;;;;;;;;;;;;;;;;;5072844;28;1126;-71
2022/10/10 04:05:18;;;;;;;;;;;;;;;;;;5073199;28;941;-71
2022/10/10 04:07:44;;;;;;;;;;;;;;;;;;5069050;28;1528;-71
2022/10/10 04:10:10;;;;;;;;;;;;;;;;;;5069416;28;1709;-72
2022/10/10 04:12:37;;;;;;;;;;;;;;;;;;5071612;28;1913;-72
2022/10/10 04:15:03;;;;;;;;;;;;;;;;;;5072167;28;1349;-73
2022/10/10 04:17:29;;;;;;;;;;;;;;;;;;5067725;28;1432;-72
2022/10/10 04:19:56;;;;;;;;;;;;;;;;;;5069430;28;1440;-72
2022/10/10 04:22:23;;;;;;;;;;;;;;;;;;5068231;28;1448;-72
2022/10/10 04:24:49;;;;;;;;;;;;;;;;;;5063812;28;1367;-73
2022/10/10 04:27:16;;;;;;;;;;;;;;;;;;5069049;28;1369;-72
2022/10/10 04:29:42;;;;;;;;;;;;;;;;;;5068535;28;1458;-72
2022/10/10 04:32:08;;;;;;;;;;;;;;;;;;5062028;28;1483;-72
2022/10/10 04:34:35;;;;;;;;;;;;;;;;;;5048642;28;1903;-72
2022/10/10 04:37:02;;;;;;;;;;;;;;;;;;5050492;28;1304;-73
2022/10/10 04:39:28;;;;;;;;;;;;;;;;;;5050370;28;1352;-71
2022/10/10 04:41:55;;;;;;;;;;;;;;;;;;5054567;28;1326;-72
2022/10/10 04:44:21;;;;;;;;;;;;;;;;;;5062131;28;1159;-71
2022/10/10 04:46:47;;;;;;;;;;;;;;;;;;5065822;28;1419;-72
2022/10/10 04:49:14;;;;;;;;;;;;;;;;;;5067760;28;1368;-72
2022/10/10 04:51:40;;;;;;;;;;;;;;;;;;5069741;28;849;-70
2022/10/10 04:54:08;;;;;;;;;;;;;;;;;;5068934;28;1922;-71
2022/10/10 04:56:35;;;;;;;;;;;;;;;;;;5070639;28;1415;-71
2022/10/10 04:59:01;;;;;;;;;;;;;;;;;;5070912;28;1365;-71
2022/10/10 05:01:27;;;;;;;;;;;;;;;;;;5070894;28;1455;-71
2022/10/10 05:03:54;;;;;;;;;;;;;;;;;;5071731;28;950;-71
2022/10/10 05:06:20;;;;;;;;;;;;;;;;;;5080181;28;1531;-71
2022/10/10 05:08:47;;;;;;;;;;;;;;;;;;5084237;28;1470;-71
2022/10/10 05:11:14;;;;;;;;;;;;;;;;;;5071723;28;996;-70
2022/10/10 05:13:40;;;;;;;;;;;;;;;;;;5071867;28;1926;-71
2022/10/10 05:16:06;;;;;;;;;;;;;;;;;;5071666;28;708;-70
2022/10/10 05:18:35;;;;;;;;;;;;;;;;;;5071685;28;1281;-73
2022/10/10 05:21:01;;;;;;;;;;;;;;;;;;5070363;28;1267;-70
2022/10/10 05:23:27;;;;;;;;;;;;;;;;;;5062990;28;1159;-70
2022/10/10 05:25:54;;;;;;;;;;;;;;;;;;5055885;28;1737;-71
2022/10/10 05:28:21;;;;;;;;;;;;;;;;;;5067625;28;1438;-71
2022/10/10 05:30:47;;;;;;;;;;;;;;;;;;5069311;28;1233;-70
2022/10/10 05:33:13;;;;;;;;;;;;;;;;;;5070242;28;1985;-72
2022/10/10 05:35:40;;;;;;;;;;;;;;;;;;5070796;28;1129;-72
2022/10/10 05:38:06;;;;;;;;;;;;;;;;;;5070771;28;1076;-72
2022/10/10 05:40:33;;;;;;;;;;;;;;;;;;5069498;28;1446;-71
2022/10/10 05:42:59;;;;;;;;;;;;;;;;;;5068936;28;1141;-70
2022/10/10 05:45:26;;;;;;;;;;;;;;;;;;5070464;28;1302;-71
2022/10/10 05:47:52;;;;;;;;;;;;;;;;;;5070765;28;1157;-71
2022/10/10 05:50:23;;;;;;;;;;;;;;;;;;5068974;28;1459;-72
2022/10/10 05:52:49;;;;;;;;;;;;;;;;;;5068673;28;1906;-72
2022/10/10 05:55:15;;;;;;;;;;;;;;;;;;5066889;28;1387;-72
2022/10/10 05:57:42;;;;;;;;;;;;;;;;;;5068159;28;1191;-72
2022/10/10 06:00:08;;;;;;;;;;;;;;;;;;5072385;28;1494;-72
2022/10/10 06:02:36;;;;;;;;;;;;;;;;;;5067399;28;1515;-71
2022/10/10 06:05:03;;;;;;;;;;;;;;;;;;5067723;28;1464;-71
2022/10/10 06:07:29;;;;;;;;;;;;;;;;;;5068464;28;1385;-71
2022/10/10 06:09:55;;;;;;;;;;;;;;;;;;5066318;28;1467;-72
2022/10/10 06:12:22;;;;;;;;;;;;;;;;;;5070029;28;1134;-71
2022/10/10 06:14:48;;;;;;;;;;;;;;;;;;5068737;28;1974;-72
2022/10/10 06:17:14;;;;;;;;;;;;;;;;;;5069400;28;1206;-72
2022/10/10 06:19:41;;;;;;;;;;;;;;;;;;5068364;28;1520;-73
2022/10/10 06:22:08;;;;;;;;;;;;;;;;;;5068900;28;1250;-72
2022/10/10 06:24:34;;;;;;;;;;;;;;;;;;5069494;28;1394;-72
2022/10/10 06:27:00;;;;;;;;;;;;;;;;;;5069958;28;1252;-71
2022/10/10 06:29:26;;;;;;;;;;;;;;;;;;5068660;28;1463;-72
2022/10/10 06:31:52;;;;;;;;;;;;;;;;;;5070112;28;1106;-72
2022/10/10 06:34:19;;;;;;;;;;;;;;;;;;5067742;28;1918;-71
2022/10/10 06:36:46;;;;;;;;;;;;;;;;;;5070259;28;1240;-72
2022/10/10 06:39:12;;;;;;;;;;;;;;;;;;5070320;28;1420;-71
2022/10/10 06:41:39;;;;;;;;;;;;;;;;;;5071844;28;1076;-71
2022/10/10 06:44:09;;;;;;;;;;;;;;;;;;5070923;28;1435;-72
2022/10/10 06:46:36;;;;;;;;;;;;;;;;;;5074197;28;1146;-70
2022/10/10 06:49:02;;;;;;;;;;;;;;;;;;5072835;28;1477;-72
2022/10/10 06:51:28;;;;;;;;;;;;;;;;;;5074043;28;1169;-72
2022/10/10 06:53:56;;;;;;;;;;;;;;;;;;5067049;28;1985;-73
2022/10/10 06:56:22;;;;;;;;;;;;;;;;;;5069457;28;1621;-72
2022/10/10 06:58:49;;;;;;;;;;;;;;;;;;5081740;28;1467;-71
2022/10/10 07:01:15;;;;;;;;;;;;;;;;;;5073993;28;1427;-70
2022/10/10 07:03:42;;;;;;;;;;;;;;;;;;5072814;28;1237;-69
2022/10/10 07:06:08;;;;;;;;;;;;;;;;;;5066112;28;1666;-71
2022/10/10 07:08:34;;;;;;;;;;;;;;;;;;5073575;28;1385;-73
2022/10/10 07:11:02;;;;;;;;;;;;;;;;;;5073710;28;1067;-72
2022/10/10 07:13:28;;;;;;;;;;;;;;;;;;5069951;28;1914;-72
2022/10/10 07:15:54;;;;;;;;;;;;;;;;;;5073096;28;1158;-72
2022/10/10 07:18:21;;;;;;;;;;;;;;;;;;5071114;28;1397;-72
2022/10/10 07:20:47;;;;;;;;;;;;;;;;;;5071891;28;1543;-71
2022/10/10 07:23:13;;;;;;;;;;;;;;;;;;5073592;28;1166;-73
2022/10/10 07:25:40;;;;;;;;;;;;;;;;;;5072700;28;1114;-73
2022/10/10 07:28:07;;;;;;;;;;;;;;;;;;5070666;28;1507;-73
2022/10/10 07:30:34;;;;;;;;;;;;;;;;;;5066084;28;1504;-71
2022/10/10 07:33:00;;;;;;;;;;;;;;;;;;5070444;28;1432;-72
2022/10/10 07:35:26;;;;;;;;;;;;;;;;;;5067195;28;1918;-72
2022/10/10 07:37:53;;;;;;;;;;;;;;;;;;5069904;28;1411;-72
2022/10/10 07:40:19;;;;;;;;;;;;;;;;;;5076557;28;1537;-72
2022/10/10 07:42:45;;;;;;;;;;;;;;;;;;5071630;28;1176;-72
2022/10/10 07:45:13;;;;;;;;;;;;;;;;;;5071683;28;1264;-71
2022/10/10 07:47:39;;;;;;;;;;;;;;;;;;5073068;28;1079;-72
2022/10/10 07:50:06;;;;;;;;;;;;;;;;;;5070729;28;1422;-71
2022/10/10 07:52:32;;;;;;;;;;;;;;;;;;5071794;28;1185;-72
2022/10/10 07:54:59;;;;;;;;;;;;;;;;;;5072923;28;1975;-72
2022/10/10 07:57:25;;;;;;;;;;;;;;;;;;5069372;28;1365;-71
2022/10/10 07:59:51;;;;;;;;;;;;;;;;;;5072026;28;1491;-72
2022/10/10 08:02:18;;;;;;;;;;;;;;;;;;5064682;28;1388;-73
2022/10/10 08:04:45;;;;;;;;;;;;;;;;;;5072460;28;1597;-74
2022/10/10 08:07:11;;;;;;;;;;;;;;;;;;5072833;28;850;-74
2022/10/10 08:09:37;;;;;;;;;;;;;;;;;;5070358;28;1444;-72
2022/10/10 08:12:03;;;;;;;;;;;;;;;;;;5065627;28;1428;-72
2022/10/10 08:14:29;;;;;;;;;;;;;;;;;;5072797;28;1977;-72
2022/10/10 08:16:56;;;;;;;;;;;;;;;;;;5070962;28;1370;-71
2022/10/10 08:19:23;;;;;;;;;;;;;;;;;;5071308;28;1517;-72
2022/10/10 08:21:49;;;;;;;;;;;;;;;;;;5070453;28;1383;-72
2022/10/10 08:24:16;;;;;;;;;;;;;;;;;;5072616;28;1185;-71
2022/10/10 08:26:42;;;;;;;;;;;;;;;;;;5072117;28;898;-71
2022/10/10 08:29:08;;;;;;;;;;;;;;;;;;5069198;28;1501;-69
2022/10/10 08:31:34;;;;;;;;;;;;;;;;;;5070097;28;1406;-71
2022/10/10 08:34:00;;;;;;;;;;;;;;;;;;5069224;28;1973;-74
2022/10/10 08:36:28;;;;;;;;;;;;;;;;;;5072524;28;846;-73
2022/10/10 08:38:56;;;;;;;;;;;;;;;;;;5070697;28;1350;-74
2022/10/10 08:41:24;;;;;;;;;;;;;;;;;;5072160;28;878;-73
2022/10/10 08:43:51;;;;;;;;;;;;;;;;;;5065801;28;1576;-74
2022/10/10 08:46:18;;;;;;;;;;;;;;;;;;5071894;28;1194;-74
2022/10/10 08:48:44;;;;;;;;;;;;;;;;;;5071928;28;1335;-73
2022/10/10 08:51:12;;;;;;;;;;;;;;;;;;5071935;28;1063;-73
2022/10/10 08:53:40;;;;;;;;;;;;;;;;;;5069307;28;1539;-72
2022/10/10 08:56:07;;;;;;;;;;;;;;;;;;5071815;28;1988;-72
2022/10/10 08:58:35;;;;;;;;;;;;;;;;;;5073567;28;1510;-72
2022/10/10 09:01:02;;;;;;;;;;;;;;;;;;5071690;28;1264;-72
2022/10/10 09:03:30;;;;;;;;;;;;;;;;;;5070763;28;1197;-71
2022/10/10 09:06:01;;;;;;;;;;;;;;;;;;5071117;28;1075;-72
2022/10/10 09:08:30;;;;;;;;;;;;;;;;;;5070974;28;1464;-72
2022/10/10 09:10:59;;;;;;;;;;;;;;;;;;5071138;28;1413;-73
2022/10/10 09:13:28;;;;;;;;;;;;;;;;;;5074415;28;1185;-73
2022/10/10 09:15:55;;;;;;;;;;;;;;;;;;5074753;28;1956;-72
2022/10/10 09:18:24;;;;;;;;;;;;;;;;;;5069168;28;1426;-72
2022/10/10 09:20:51;;;;;;;;;;;;;;;;;;5071197;28;1443;-72
2022/10/10 09:23:19;;;;;;;;;;;;;;;;;;5071267;28;1071;-72
2022/10/10 09:25:47;;;;;;;;;;;;;;;;;;5069711;28;1454;-72
2022/10/10 09:28:16;;;;;;;;;;;;;;;;;;5064239;28;1330;-72
2022/10/10 09:30:43;;;;;;;;;;;;;;;;;;5070961;28;1389;-71
2022/10/10 09:33:13;;;;;;;;;;;;;;;;;;5063321;28;1416;-72
2022/10/10 09:35:39;;;;;;;;;;;;;;;;;;5070896;28;1914;-72
2022/10/10 09:38:11;;;;;;;;;;;;;;;;;;5071055;28;1099;-72
2022/10/10 09:40:37;;;;;;;;;;;;;;;;;;5068164;28;1496;-73
2022/10/10 09:43:08;;;;;;;;;;;;;;;;;;5070755;28;1138;-72
2022/10/10 09:45:36;;;;;;;;;;;;;;;;;;5069800;28;1048;-73
2022/10/10 09:48:02;;;;;;;;;;;;;;;;;;5071197;28;761;-73
2022/10/10 09:50:28;;;;;;;;;;;;;;;;;;5070473;28;1516;-71
2022/10/10 09:52:54;;;;;;;;;;;;;;;;;;5069470;28;1720;-73
2022/10/10 09:55:25;;;;;;;;;;;;;;;;;;5063665;28;1895;-73
2022/10/10 09:57:52;;;;;;;;;;;;;;;;;;5070645;28;918;-73
2022/10/10 10:00:26;;;;;;;;;;;;;;;;;;5069620;28;1456;-73
2022/10/10 10:03:04;;;;;;;;;;;;;;;;;;5068679;28;1483;-73
2022/10/10 10:05:30;;;;;;;;;;;;;;;;;;5062642;28;1659;-73
2022/10/10 10:07:57;;;;;;;;;;;;;;;;;;5071114;28;869;-73
2022/10/10 10:10:24;;;;;;;;;;;;;;;;;;5070599;28;1273;-72
2022/10/10 10:12:50;;;;;;;;;;;;;;;;;;5068340;28;1427;-73
2022/10/10 10:15:18;;;;;;;;;;;;;;;;;;5068769;28;1915;-72
2022/10/10 10:17:44;;;;;;;;;;;;;;;;;;5070074;28;1051;-73
2022/10/10 10:20:28;;;;;;;;;;;;;;;;;;5070784;28;1294;-72
2022/10/10 10:22:55;;;;;;;;;;;;;;;;;;5068753;28;1440;-74
2022/10/10 10:25:28;;;;;;;;;;;;;;;;;;5070394;28;1218;-72
2022/10/10 10:27:54;;;;;;;;;;;;;;;;;;5069518;28;1402;-74
2022/10/10 10:30:23;;;;;;;;;;;;;;;;;;5069518;28;1458;-74
2022/10/10 10:32:50;;;;;;;;;;;;;;;;;;5069126;28;1140;-73
2022/10/10 10:35:19;;;;;;;;;;;;;;;;;;5063334;28;1914;-73
2022/10/10 10:37:55;;;;;;;;;;;;;;;;;;5064319;28;1138;-74
2022/10/10 10:40:23;;;;;;;;;;;;;;;;;;5067877;28;1490;-72
2022/10/10 10:42:54;;;;;;;;;;;;;;;;;;5069812;28;1181;-73
2022/10/10 10:45:21;;;;;;;;;;;;;;;;;;5067598;28;1425;-72
2022/10/10 10:47:50;;;;;;;;;;;;;;;;;;5070076;28;1220;-72
2022/10/10 10:50:23;;;;;;;;;;;;;;;;;;5070101;28;1415;-72
2022/10/10 10:52:54;;;;;;;;;;;;;;;;;;5085639;28;1635;-72
2022/10/10 10:55:25;;;;;;;;;;;;;;;;;;5075831;28;1976;-73
2022/10/10 10:58:00;;;;;;;;;;;;;;;;;;5068073;28;909;-72
2022/10/10 11:00:26;;;;;;;;;;;;;;;;;;5070341;28;1320;-72
2022/10/10 11:02:56;;;;;;;;;;;;;;;;;;5069721;28;1048;-73
2022/10/10 11:05:28;;;;;;;;;;;;;;;;;;5070415;28;1154;-73
2022/10/10 11:07:58;;;;;;;;;;;;;;;;;;5070314;28;798;-72
2022/10/10 11:10:25;;;;;;;;;;;;;;;;;;5070072;28;1361;-72
2022/10/10 11:12:54;;;;;;;;;;;;;;;;;;5069808;28;1115;-73
2022/10/10 11:15:21;;;;;;;;;;;;;;;;;;5069867;28;1914;-73
2022/10/10 11:17:48;;;;;;;;;;;;;;;;;;5069129;28;1343;-73
2022/10/10 11:20:16;;;;;;;;;;;;;;;;;;5068917;28;1414;-73
2022/10/10 11:22:43;;;;;;;;;;;;;;;;;;5066775;28;1403;-73
2022/10/10 11:25:14;;;;;;;;;;;;;;;;;;5064971;28;1449;-72
2022/10/10 11:27:41;;;;;;;;;;;;;;;;;;5070307;28;1054;-72
2022/10/10 11:30:12;;;;;;;;;;;;;;;;;;5069458;28;1637;-73
2022/10/10 11:32:41;;;;;;;;;;;;;;;;;;5072181;28;1414;-73
2022/10/10 11:35:10;;;;;;;;;;;;;;;;;;5072324;28;1938;-70
2022/10/10 11:37:37;;;;;;;;;;;;;;;;;;5069582;28;1407;-73
2022/10/10 11:40:05;;;;;;;;;;;;;;;;;;5072238;28;1539;-73
2022/10/10 11:42:33;;;;;;;;;;;;;;;;;;5071664;28;1390;-72
2022/10/10 11:44:59;;;;;;;;;;;;;;;;;;5072148;28;1330;-73
2022/10/10 11:47:27;;;;;;;;;;;;;;;;;;5072119;28;1119;-73
2022/10/10 11:49:53;;;;;;;;;;;;;;;;;;5069555;28;1410;-74
2022/10/10 11:52:20;;;;;;;;;;;;;;;;;;5067777;28;1378;-74
2022/10/10 11:54:49;;;;;;;;;;;;;;;;;;5069375;28;1910;-74
2022/10/10 11:57:17;;;;;;;;;;;;;;;;;;5072763;28;1048;-74
2022/10/10 11:59:46;;;;;;;;;;;;;;;;;;5069957;28;1408;-74
2022/10/10 12:02:16;;;;;;;;;;;;;;;;;;5070344;28;1159;-74
2022/10/10 12:04:42;;;;;;;;;;;;;;;;;;5073071;28;1080;-75
2022/10/10 12:07:11;;;;;;;;;;;;;;;;;;5073590;28;995;-75
2022/10/10 12:09:38;;;;;;;;;;;;;;;;;;5072331;28;1421;-75
2022/10/10 12:12:06;;;;;;;;;;;;;;;;;;5071235;28;1686;-75
2022/10/10 12:14:32;;;;;;;;;;;;;;;;;;5073063;28;1220;-73
2022/10/10 12:16:59;;;;;;;;;;;;;;;;;;5071693;28;1922;-72
2022/10/10 12:19:26;;;;;;;;;;;;;;;;;;5072991;28;1406;-74
2022/10/10 12:21:59;;;;;;;;;;;;;;;;;;5070820;28;1440;-73
2022/10/10 12:24:26;;;;;;;;;;;;;;;;;;5068966;28;1481;-75
2022/10/10 12:27:25;;;;;;;;;;;;;;;;;;5071057;28;1165;-74
2022/10/10 12:30:07;;;;;;;;;;;;;;;;;;5066480;28;1479;-74
2022/10/10 12:32:41;;;;;;;;;;;;;;;;;;5071630;28;1918;-74
2022/10/10 12:35:26;;;;;;;;;;;;;;;;;;5073417;28;1917;-75
2022/10/10 12:38:06;;;;;;;;;;;;;;;;;;5068365;28;1446;-73
2022/10/10 12:40:32;;;;;;;;;;;;;;;;;;5066667;28;1482;-74
2022/10/10 12:43:00;;;;;;;;;;;;;;;;;;5070772;28;1378;-75
2022/10/10 12:45:46;;;;;;;;;;;;;;;;;;5071463;28;1392;-73
2022/10/10 12:48:18;;;;;;;;;;;;;;;;;;5072462;28;945;-75
2022/10/10 12:50:53;;;;;;;;;;;;;;;;;;5072012;28;1338;-72
2022/10/10 12:53:20;;;;;;;;;;;;;;;;;;5074075;28;1492;-72
2022/10/10 12:55:46;;;;;;;;;;;;;;;;;;5068984;28;1917;-73
2022/10/10 12:58:14;;;;;;;;;;;;;;;;;;5071987;28;1260;-72
2022/10/10 13:00:41;;;;;;;;;;;;;;;;;;5064770;28;1401;-72
2022/10/10 13:03:10;;;;;;;;;;;;;;;;;;5070956;28;1613;-72
2022/10/10 13:05:39;;;;;;;;;;;;;;;;;;5071782;28;790;-71
2022/10/10 13:08:06;;;;;;;;;;;;;;;;;;5069110;28;1409;-72
2022/10/10 13:10:32;;;;;;;;;;;;;;;;;;5071797;28;1394;-71
2022/10/10 13:12:59;;;;;;;;;;;;;;;;;;5062793;28;1366;-70
2022/10/10 13:15:25;;;;;;;;;;;;;;;;;;5071546;28;1934;-73
2022/10/10 13:17:52;;;;;;;;;;;;;;;;;;5065039;28;1468;-73
2022/10/10 13:20:25;;;;;;;;;;;;;;;;;;5070200;28;1441;-71
2022/10/10 13:22:53;;;;;;;;;;;;;;;;;;5066469;28;1424;-73
2022/10/10 13:25:19;;;;;;;;;;;;;;;;;;5054284;28;1392;-72
2022/10/10 13:27:45;;;;;;;;;;;;;;;;;;5057421;28;1446;-73
2022/10/10 13:30:16;;;;;;;;;;;;;;;;;;5058814;28;1547;-73
2022/10/10 13:32:42;;;;;;;;;;;;;;;;;;5070075;28;1385;-73
2022/10/10 13:35:12;;;;;;;;;;;;;;;;;;5066267;28;1406;-71
2022/10/10 13:37:39;;;;;;;;;;;;;;;;;;5068539;28;1423;-72
2022/10/10 13:40:12;;;;;;;;;;;;;;;;;;5062237;28;1424;-73
2022/10/10 13:42:39;;;;;;;;;;;;;;;;;;5065498;28;1494;-72
2022/10/10 13:45:20;;;;;;;;;;;;;;;;;;5070382;28;1458;-73
2022/10/10 13:47:49;;;;;;;;;;;;;;;;;;5071144;28;1189;-73
2022/10/10 13:50:19;;;;;;;;;;;;;;;;;;5065060;28;1536;-73
2022/10/10 13:52:45;;;;;;;;;;;;;;;;;;5070230;28;1359;-73
2022/10/10 13:55:20;;;;;;;;;;;;;;;;;;5071129;28;964;-71
2022/10/10 13:57:46;;;;;;;;;;;;;;;;;;5067533;28;1481;-73
2022/10/10 14:00:15;;;;;;;;;;;;;;;;;;5069871;28;1395;-73
2022/10/10 14:02:41;;;;;;;;;;;;;;;;;;5066446;28;1428;-73
2022/10/10 14:05:08;;;;;;;;;;;;;;;;;;5066699;28;1457;-73
2022/10/10 14:07:34;;;;;;;;;;;;;;;;;;5067062;28;1392;-72
2022/10/10 14:10:01;;;;;;;;;;;;;;;;;;5051118;28;1391;-74
2022/10/10 14:12:29;;;;;;;;;;;;;;;;;;5049025;28;933;-74
2022/10/10 14:14:56;;;;;;;;;;;;;;;;;;5048283;28;1207;-72
2022/10/10 14:17:23;;;;;;;;;;;;;;;;;;5054073;28;1917;-73
2022/10/10 14:19:49;;;;;;;;;;;;;;;;;;5069858;28;1644;-74
2022/10/10 14:22:16;;;;;;;;;;;;;;;;;;5068521;28;1583;-74
2022/10/10 14:24:42;;;;;;;;;;;;;;;;;;5069396;28;1352;-73
2022/10/10 14:27:12;;;;;;;;;;;;;;;;;;5071446;28;1087;-74
2022/10/10 14:29:39;;;;;;;;;;;;;;;;;;5071643;28;1356;-74
2022/10/10 14:32:06;;;;;;;;;;;;;;;;;;5069071;28;1385;-74
2022/10/10 14:34:32;;;;;;;;;;;;;;;;;;5070767;28;1381;-74
2022/10/10 14:36:58;;;;;;;;;;;;;;;;;;5066709;28;1918;-73
2022/10/10 14:39:24;;;;;;;;;;;;;;;;;;5069883;28;1419;-73
2022/10/10 14:41:50;;;;;;;;;;;;;;;;;;5070280;28;1350;-72
2022/10/10 14:44:17;;;;;;;;;;;;;;;;;;5071289;28;1320;-73
2022/10/10 14:46:44;;;;;;;;;;;;;;;;;;5070822;28;1427;-72
2022/10/10 14:49:14;;;;;;;;;;;;;;;;;;5070186;28;1513;-72
2022/10/10 14:51:41;;;;;;;;;;;;;;;;;;5066950;28;1439;-72
2022/10/10 14:54:07;;;;;;;;;;;;;;;;;;5071283;28;1699;-73
2022/10/10 14:56:33;;;;;;;;;;;;;;;;;;5066341;28;1918;-73
2022/10/10 14:58:59;;;;;;;;;;;;;;;;;;5073702;28;1491;-74
2022/10/10 15:01:25;;;;;;;;;;;;;;;;;;5068403;28;1506;-73
2022/10/10 15:03:53;;;;;;;;;;;;;;;;;;5070586;28;1435;-73
2022/10/10 15:06:19;;;;;;;;;;;;;;;;;;5067546;28;1300;-73
2022/10/10 15:08:45;;;;;;;;;;;;;;;;;;5084513;22;3511;-80
2022/10/10 15:11:13;;;;;;;;;;;;;;;;;;5069680;28;1636;-78
2022/10/10 15:13:40;;;;;;;;;;;;;;;;;;5057302;28;961;-79
2022/10/10 15:16:07;;;;;;;;;;;;;;;;;;5061078;28;1907;-79
2022/10/10 15:18:33;;;;;;;;;;;;;;;;;;5058773;28;1465;-78
2022/10/10 15:21:00;;;;;;;;;;;;;;;;;;5073075;28;1590;-80
2022/10/10 15:23:26;;;;;;;;;;;;;;;;;;5057331;28;1067;-78
2022/10/10 15:25:53;;;;;;;;;;;;;;;;;;5061011;28;1483;-79
2022/10/10 15:28:19;;;;;;;;;;;;;;;;;;5070422;28;1307;-77
2022/10/10 15:30:45;;;;;;;;;;;;;;;;;;5058914;28;1503;-78
2022/10/10 15:33:11;;;;;;;;;;;;;;;;;;5088874;28;1190;-78
2022/10/10 15:35:37;;;;;;;;;;;;;;;;;;5067478;28;1437;-78
2022/10/10 15:38:05;;;;;;;;;;;;;;;;;;5057328;28;2018;-79
2022/10/10 15:40:31;;;;;;;;;;;;;;;;;;5072498;28;1498;-77
2022/10/10 15:42:57;;;;;;;;;;;;;;;;;;5075792;28;1452;-79
2022/10/10 15:45:23;;;;;;;;;;;;;;;;;;5073585;28;1617;-78
2022/10/10 15:47:50;;;;;;;;;;;;;;;;;;5076728;28;995;-79
2022/10/10 15:50:16;;;;;;;;;;;;;;;;;;5067123;28;1672;-79
2022/10/10 15:52:42;;;;;;;;;;;;;;;;;;5075850;28;1018;-78
2022/10/10 15:55:10;;;;;;;;;;;;;;;;;;5074142;28;1393;-78
2022/10/10 15:57:36;;;;;;;;;;;;;;;;;;5074529;28;1918;-78
2022/10/10 16:00:03;;;;;;;;;;;;;;;;;;5069685;28;1467;-78
2022/10/10 16:02:38;;;;;;;;;;;;;;;;;;5065483;28;1130;-78
2022/10/10 16:05:04;;;;;;;;;;;;;;;;;;5063173;28;1665;-77
2022/10/10 16:07:31;;;;;;;;;;;;;;;;;;5072351;28;1598;-78
2022/10/10 16:09:57;;;;;;;;;;;;;;;;;;5064594;28;1438;-78
2022/10/10 16:12:25;;;;;;;;;;;;;;;;;;5065094;28;1417;-78
2022/10/10 16:14:51;;;;;;;;;;;;;;;;;;5062103;28;1287;-78
2022/10/10 16:17:17;;;;;;;;;;;;;;;;;;5063261;28;1954;-79
2022/10/10 16:19:43;;;;;;;;;;;;;;;;;;5064400;28;1416;-79
2022/10/10 16:22:10;;;;;;;;;;;;;;;;;;5064960;28;1684;-77
2022/10/10 16:24:36;;;;;;;;;;;;;;;;;;5064424;28;1468;-79
2022/10/10 16:27:02;;;;;;;;;;;;;;;;;;5054110;28;1113;-78
2022/10/10 16:29:29;;;;;;;;;;;;;;;;;;5051764;28;1455;-79
2022/10/10 16:31:56;;;;;;;;;;;;;;;;;;5052311;28;1521;-77
2022/10/10 16:34:22;;;;;;;;;;;;;;;;;;5062057;28;1368;-77
2022/10/10 16:36:48;;;;;;;;;;;;;;;;;;5056317;28;1914;-78
2022/10/10 16:39:14;;;;;;;;;;;;;;;;;;5066707;28;1469;-78
2022/10/10 16:41:40;;;;;;;;;;;;;;;;;;5064138;28;1375;-78
2022/10/10 16:44:06;;;;;;;;;;;;;;;;;;5062602;28;1195;-78
2022/10/10 16:46:34;;;;;;;;;;;;;;;;;;5065005;28;1385;-77
2022/10/10 16:49:00;;;;;;;;;;;;;;;;;;5059740;28;1428;-78
2022/10/10 16:51:27;;;;;;;;;;;;;;;;;;5059124;28;1456;-78
2022/10/10 16:53:53;;;;;;;;;;;;;;;;;;5060788;28;1476;-78
2022/10/10 16:56:20;;;;;;;;;;;;;;;;;;5061053;28;1914;-79
2022/10/10 16:58:46;;;;;;;;;;;;;;;;;;5059102;28;1431;-78
2022/10/10 17:01:13;;;;;;;;;;;;;;;;;;5067804;28;1374;-78
2022/10/10 17:03:41;;;;;;;;;;;;;;;;;;5062056;28;1601;-78
2022/10/10 17:06:09;;;;;;;;;;;;;;;;;;5061657;28;1167;-77
2022/10/10 17:08:35;;;;;;;;;;;;;;;;;;5068378;28;1468;-77